Time;durP1;ratioP1;P1;durP2;ratioP2;P2;SDS_P1;SDS_P2;PMS_P1;PMS_P2;Temp;Humidity;BMP_temperature;BMP_pressure;BME280_temperature;BME280_humidity;BME280_pressure;Samples;Min_cycle;Max_cycle;Signal;HPM_P1;HPM_P2
2022/04/09 00:03:20;;;;;;;69.80;43.28;;;;;;;7.29;84.36;98089.86;2952663;79;21152;-82
2022/04/09 00:07:21;;;;;;;39.08;22.35;;;;;;;7.31;84.10;98080.94;2951892;79;21038;-82
2022/04/09 00:11:22;;;;;;;40.48;24.90;;;;;;;7.38;83.57;98074.86;2937051;80;21038;-82
2022/04/09 00:15:24;;;;;;;33.42;18.82;;;;;;;7.46;82.90;98083.80;2953953;79;21625;-82
2022/04/09 00:19:25;;;;;;;27.67;16.75;;;;;;;7.62;82.50;98086.98;2940030;80;21129;-82
2022/04/09 00:23:27;;;;;;;18.98;11.33;;;;;;;7.67;81.98;98085.52;2913975;79;21055;-82
2022/04/09 00:27:28;;;;;;;18.12;11.35;;;;;;;7.78;81.64;98087.54;2930748;80;21069;-82
2022/04/09 00:31:30;;;;;;;14.68;10.03;;;;;;;7.86;80.71;98076.48;2926617;80;21384;-82
2022/04/09 00:35:31;;;;;;;13.98;9.70;;;;;;;7.80;81.46;98087.70;2922463;80;21046;-82
2022/04/09 00:39:32;;;;;;;16.65;11.63;;;;;;;7.80;81.71;98077.62;2952760;79;21432;-82
2022/04/09 00:43:33;;;;;;;18.05;12.47;;;;;;;7.91;81.53;98091.03;2915423;80;21577;-82
2022/04/09 00:47:35;;;;;;;16.40;10.60;;;;;;;7.98;81.36;98102.63;2925341;80;21026;-82
2022/04/09 00:51:43;;;;;;;16.02;10.68;;;;;;;8.12;81.43;98099.82;2950899;79;20996;-83
2022/04/09 01:00:12;;;;;;;12.47;9.15;;;;;;;8.22;80.90;98099.19;2927767;79;21050;-82
2022/04/09 01:04:13;;;;;;;6.72;5.60;;;;;;;8.12;81.36;98117.03;2948543;80;21058;-82
2022/04/09 01:08:15;;;;;;;6.60;5.12;;;;;;;8.08;81.99;98139.06;2940205;80;21039;-82
2022/04/09 01:12:16;;;;;;;7.95;6.67;;;;;;;7.98;83.19;98152.92;2952893;79;21007;-83
2022/04/09 01:16:18;;;;;;;11.05;6.95;;;;;;;7.68;83.85;98160.45;2922426;80;21062;-82
2022/04/09 01:20:23;;;;;;;7.62;6.60;;;;;;;7.43;84.71;98165.62;2940284;80;21014;-82
2022/04/09 01:24:24;;;;;;;14.13;7.75;;;;;;;7.22;86.86;98177.41;2951896;79;21555;-82
2022/04/09 01:28:26;;;;;;;9.78;5.95;;;;;;;6.99;88.44;98189.83;2929718;79;21030;-82
2022/04/09 01:32:27;;;;;;;6.37;5.10;;;;;;;7.02;86.90;98195.78;3017371;78;21010;-82
2022/04/09 01:36:28;;;;;;;12.65;5.60;;;;;;;6.92;85.38;98192.76;2982436;78;20986;-82
2022/04/09 01:40:29;;;;;;;8.63;6.05;;;;;;;6.74;85.95;98207.81;2982932;78;21037;-81
2022/04/09 01:44:30;;;;;;;6.78;4.90;;;;;;;6.55;88.34;98210.44;2984012;78;21049;-82
2022/04/09 01:48:32;;;;;;;7.08;5.15;;;;;;;6.49;88.58;98216.84;2989381;78;20974;-82
2022/04/09 01:52:33;;;;;;;9.13;4.70;;;;;;;6.38;89.05;98228.42;2988947;77;21647;-82
2022/04/09 01:56:34;;;;;;;15.45;6.28;;;;;;;6.37;90.40;98224.97;3015403;78;21501;-82
2022/04/09 02:00:36;;;;;;;4.53;3.90;;;;;;;6.28;88.79;98223.20;2975991;77;21622;-82
2022/04/09 02:04:37;;;;;;;6.00;4.55;;;;;;;6.04;87.36;98221.97;3016711;77;21627;-82
2022/04/09 02:08:39;;;;;;;8.78;5.22;;;;;;;6.04;89.45;98223.29;2986469;77;21021;-82
2022/04/09 02:12:41;;;;;;;5.72;4.70;;;;;;;5.89;90.57;98236.12;2988618;77;21682;-82
2022/04/09 02:16:42;;;;;;;6.20;4.50;;;;;;;5.90;90.01;98235.64;3010203;77;21005;-82
2022/04/09 02:20:43;;;;;;;4.97;3.70;;;;;;;5.64;88.97;98240.25;2993013;77;21013;-82
2022/04/09 02:24:44;;;;;;;6.37;4.50;;;;;;;5.52;91.49;98241.77;2989706;78;20990;-82
2022/04/09 02:28:49;;;;;;;6.62;4.72;;;;;;;5.45;90.56;98247.25;2991190;77;21029;-82
2022/04/09 02:32:52;;;;;;;7.55;4.62;;;;;;;5.29;90.93;98253.13;2990641;78;21027;-80
2022/04/09 02:36:54;;;;;;;10.30;6.15;;;;;;;5.22;91.15;98260.77;2982389;77;21056;-81
2022/04/09 02:40:55;;;;;;;8.90;6.17;;;;;;;5.20;92.41;98286.91;2995333;77;21057;-81
2022/04/09 02:44:57;;;;;;;22.35;13.15;;;;;;;5.22;91.34;98294.22;2978500;77;21051;-82
2022/04/09 02:48:58;;;;;;;18.50;10.53;;;;;;;5.30;92.81;98300.92;2965561;78;21066;-82
2022/04/09 02:52:59;;;;;;;16.87;9.83;;;;;;;5.32;93.25;98301.61;2990897;77;21382;-81
2022/04/09 02:57:01;;;;;;;14.45;8.83;;;;;;;5.29;93.31;98304.03;3001342;77;21547;-82
2022/04/09 03:01:02;;;;;;;10.82;6.33;;;;;;;5.38;93.41;98305.49;3019071;78;21178;-82
2022/04/09 03:05:05;;;;;;;9.10;7.22;;;;;;;5.42;93.16;98317.41;2995550;77;20945;-82
2022/04/09 03:09:06;;;;;;;7.85;6.20;;;;;;;5.51;92.36;98316.58;3019531;77;21405;-81
2022/04/09 03:13:08;;;;;;;8.80;6.50;;;;;;;5.63;92.08;98321.67;2984837;78;21009;-82
2022/04/09 03:17:09;;;;;;;6.90;4.15;;;;;;;5.70;91.95;98324.92;2987004;77;21020;-82
2022/04/09 03:21:11;;;;;;;12.07;5.95;;;;;;;5.73;92.31;98330.41;2991423;78;21108;-82
2022/04/09 03:25:12;;;;;;;6.35;4.10;;;;;;;5.82;92.00;98337.96;2988034;77;21520;-82
2022/04/09 03:29:13;;;;;;;6.03;4.87;;;;;;;6.00;91.65;98348.11;2933947;79;21642;-82
2022/04/09 03:33:15;;;;;;;6.47;4.45;;;;;;;6.17;91.34;98348.84;2942972;79;20969;-82
2022/04/09 03:37:16;;;;;;;6.60;4.67;;;;;;;6.26;90.29;98348.80;2945893;79;21040;-82
2022/04/09 03:41:17;;;;;;;6.58;4.60;;;;;;;6.28;89.83;98356.55;2955371;79;21022;-82
2022/04/09 03:45:18;;;;;;;9.38;6.22;;;;;;;6.35;89.70;98364.73;2888508;80;21100;-82
2022/04/09 03:49:19;;;;;;;17.12;8.40;;;;;;;6.52;89.79;98371.06;3015192;77;21536;-81
2022/04/09 03:53:20;;;;;;;10.03;6.10;;;;;;;6.64;88.62;98376.47;3017097;78;21021;-81
2022/04/09 03:57:21;;;;;;;8.40;6.95;;;;;;;6.69;87.93;98394.05;2982801;77;21025;-82
2022/04/09 04:01:24;;;;;;;12.10;6.70;;;;;;;6.71;87.98;98395.21;3000461;78;21018;-82
2022/04/09 04:05:25;;;;;;;7.15;4.70;;;;;;;6.74;87.88;98407.31;2989179;78;21100;-82
2022/04/09 04:09:26;;;;;;;4.92;4.45;;;;;;;6.65;87.42;98409.84;3010394;77;21123;-83
2022/04/09 04:13:28;;;;;;;7.95;5.67;;;;;;;6.57;87.88;98419.00;2985199;77;21089;-81
2022/04/09 04:17:41;;;;;;;9.38;6.70;;;;;;;6.51;88.28;98419.09;3008861;77;21029;-81
2022/04/09 04:21:42;;;;;;;5.75;5.22;;;;;;;6.48;88.63;98428.63;2985869;78;21028;-82
2022/04/09 04:25:43;;;;;;;8.35;5.35;;;;;;;6.47;88.76;98434.04;2916539;81;20997;-82
2022/04/09 04:29:44;;;;;;;8.43;4.85;;;;;;;6.43;88.84;98439.62;2979896;78;21012;-82
2022/04/09 04:33:45;;;;;;;7.15;5.45;;;;;;;6.37;89.27;98445.95;2978687;79;21026;-82
2022/04/09 04:37:47;;;;;;;8.65;5.70;;;;;;;6.33;89.37;98448.08;2972071;79;21037;-82
2022/04/09 04:41:48;;;;;;;11.00;5.97;;;;;;;6.33;89.44;98437.98;2963476;79;21007;-83
2022/04/09 04:45:49;;;;;;;5.80;4.78;;;;;;;6.33;89.47;98440.63;2973782;78;20998;-82
2022/04/09 04:49:51;;;;;;;10.08;5.47;;;;;;;6.34;88.96;98444.46;2985677;79;20997;-82
2022/04/09 04:53:52;;;;;;;7.28;5.62;;;;;;;6.34;88.95;98455.02;2972976;79;21042;-82
2022/04/09 04:57:54;;;;;;;8.70;7.15;;;;;;;6.35;88.75;98461.13;2967423;79;21061;-82
2022/04/09 05:01:55;;;;;;;11.85;6.30;;;;;;;6.35;88.82;98476.49;2887446;81;21033;-81
2022/04/09 05:05:56;;;;;;;12.65;6.37;;;;;;;6.35;88.80;98489.70;2952531;79;21058;-82
2022/04/09 05:09:57;;;;;;;10.00;6.80;;;;;;;6.42;89.16;98492.61;2882884;80;21076;-82
2022/04/09 05:13:58;;;;;;;12.25;7.60;;;;;;;6.42;89.01;98496.06;2952808;79;21618;-82
2022/04/09 05:18:03;;;;;;;8.48;5.90;;;;;;;6.42;89.09;98501.34;2892322;82;21582;-80
2022/04/09 05:22:04;;;;;;;15.28;6.70;;;;;;;6.47;89.17;98516.77;2950267;78;21003;-81
2022/04/09 05:26:05;;;;;;;10.32;7.25;;;;;;;6.52;88.87;98520.31;2950180;79;21050;-82
2022/04/09 05:30:07;;;;;;;10.53;6.22;;;;;;;6.53;88.84;98528.58;2995822;77;21581;-82
2022/04/09 05:34:08;;;;;;;6.35;4.92;;;;;;;6.50;88.55;98534.97;3016341;78;21020;-82
2022/04/09 05:38:09;;;;;;;10.48;5.83;;;;;;;6.43;88.82;98547.91;3003292;78;21525;-81
2022/04/09 05:42:11;;;;;;;9.33;6.30;;;;;;;6.31;89.26;98553.02;3015474;78;21691;-81
2022/04/09 05:46:12;;;;;;;5.33;4.72;;;;;;;6.27;88.74;98556.42;3023112;78;21601;-82
2022/04/09 05:50:14;;;;;;;13.83;7.83;;;;;;;6.27;88.08;98575.37;2985499;77;21088;-82
2022/04/09 05:54:16;;;;;;;9.55;6.40;;;;;;;6.27;88.69;98571.42;3005344;77;21566;-81
2022/04/09 05:58:17;;;;;;;6.75;5.87;;;;;;;6.33;89.03;98582.76;2922501;80;21077;-82
2022/04/09 06:02:18;;;;;;;11.35;5.53;;;;;;;6.26;89.06;98580.31;3015634;78;21057;-82
2022/04/09 06:06:19;;;;;;;15.40;8.05;;;;;;;6.28;88.16;98570.44;3002474;78;21017;-82
2022/04/09 06:10:20;;;;;;;9.00;6.67;;;;;;;6.26;88.42;98596.16;2991957;78;21037;-82
2022/04/09 06:14:21;;;;;;;8.08;5.75;;;;;;;6.41;88.19;98605.83;3012435;78;20997;-82
2022/04/09 06:18:22;;;;;;;9.78;7.60;;;;;;;6.44;87.50;98608.19;3009896;78;21021;-82
2022/04/09 06:22:23;;;;;;;8.90;6.42;;;;;;;6.68;87.64;98622.28;2992072;78;21025;-82
2022/04/09 06:26:25;;;;;;;7.50;5.10;;;;;;;6.90;85.65;98626.89;3004337;77;21048;-82
2022/04/09 06:30:27;;;;;;;10.20;6.28;;;;;;;7.18;86.18;98633.54;2965879;78;21062;-82
2022/04/09 06:34:28;;;;;;;9.85;5.85;;;;;;;7.38;85.22;98651.51;2977698;78;20999;-81
2022/04/09 06:38:31;;;;;;;7.85;5.83;;;;;;;7.57;83.35;98638.66;2969844;78;21044;-81
2022/04/09 06:42:32;;;;;;;8.35;6.33;;;;;;;7.68;81.75;98647.40;2942567;78;21367;-81
2022/04/09 06:46:33;;;;;;;7.35;5.97;;;;;;;7.71;80.55;98666.95;2951440;78;21001;-82
2022/04/09 06:50:34;;;;;;;11.30;5.97;;;;;;;7.88;80.64;98663.98;2973263;79;20998;-82
2022/04/09 06:54:35;;;;;;;15.88;5.37;;;;;;;7.98;79.83;98666.10;2889959;80;21116;-81
2022/04/09 06:58:37;;;;;;;5.78;3.47;;;;;;;8.11;80.15;98682.95;2977575;78;21471;-81
2022/04/09 07:02:39;;;;;;;8.05;4.10;;;;;;;8.28;80.72;98681.80;2927322;79;20979;-82
2022/04/09 07:06:41;;;;;;;9.60;4.12;;;;;;;8.15;80.38;98704.17;2971614;79;21514;-81
2022/04/09 07:10:42;;;;;;;8.98;4.85;;;;;;;8.34;79.24;98697.08;2943969;79;21498;-82
2022/04/09 07:14:43;;;;;;;14.73;5.25;;;;;;;8.46;79.37;98722.05;2949234;79;21622;-82
2022/04/09 07:18:44;;;;;;;7.28;4.35;;;;;;;8.41;76.35;98746.34;2960582;78;20963;-81
2022/04/09 07:22:45;;;;;;;10.95;4.28;;;;;;;8.33;76.28;98755.03;2891795;80;21021;-82
2022/04/09 07:26:46;;;;;;;10.72;4.80;;;;;;;8.52;77.61;98758.56;2951397;79;20995;-81
2022/04/09 07:30:48;;;;;;;6.42;4.62;;;;;;;8.66;77.13;98771.31;2968431;79;21039;-81
2022/04/09 07:34:49;;;;;;;14.20;5.00;;;;;;;8.78;77.74;98784.33;2992242;78;21580;-81
2022/04/09 07:38:50;;;;;;;10.78;4.17;;;;;;;8.54;75.76;98760.06;2961520;78;21011;-80
2022/04/09 07:42:52;;;;;;;7.78;3.15;;;;;;;8.14;73.79;98799.19;2968061;78;21002;-81
2022/04/09 07:46:54;;;;;;;6.20;4.78;;;;;;;7.86;75.85;98820.36;2983501;77;21435;-81
2022/04/09 07:50:55;;;;;;;6.55;4.72;;;;;;;7.64;77.50;98847.14;2981198;79;21018;-81
2022/04/09 07:54:57;;;;;;;8.13;4.97;;;;;;;7.43;77.85;98844.17;2974231;78;20995;-82
2022/04/09 07:58:58;;;;;;;6.53;4.60;;;;;;;7.49;78.52;98840.14;2990728;78;20987;-82
2022/04/09 08:02:59;;;;;;;3.90;3.50;;;;;;;7.93;79.63;98871.40;2980831;77;21053;-82
2022/04/09 08:07:01;;;;;;;5.70;4.30;;;;;;;7.89;75.55;98879.29;2987278;77;20971;-81
2022/04/09 08:11:02;;;;;;;6.20;3.55;;;;;;;7.95;77.31;98878.70;2980657;78;21034;-81
2022/04/09 08:15:04;;;;;;;8.03;4.37;;;;;;;7.86;77.35;98883.89;2973179;78;21067;-81
2022/04/09 08:19:07;;;;;;;5.12;3.58;;;;;;;8.08;77.80;98878.38;2982688;78;21014;-81
2022/04/09 08:23:08;;;;;;;9.43;4.28;;;;;;;7.79;73.42;98914.55;3004231;78;21038;-83
2022/04/09 08:27:09;;;;;;;7.25;3.83;;;;;;;8.05;75.83;98937.77;3005022;78;21534;-83
2022/04/09 08:31:10;;;;;;;8.80;3.33;;;;;;;8.48;73.68;98893.15;3012152;78;21944;-82
2022/04/09 08:35:12;;;;;;;4.40;2.77;;;;;;;8.70;69.98;98909.19;2988510;77;20979;-82
2022/04/09 08:39:13;;;;;;;9.43;2.50;;;;;;;8.68;66.79;98932.38;3013804;78;21056;-81
2022/04/09 08:43:14;;;;;;;3.92;2.40;;;;;;;8.64;67.07;98930.97;3000680;77;21021;-82
2022/04/09 08:47:16;;;;;;;3.65;2.60;;;;;;;8.73;65.99;98945.67;3017950;77;20973;-81
2022/04/09 08:51:17;;;;;;;7.85;3.37;;;;;;;8.78;66.35;98949.55;3017393;78;20993;-83
2022/04/09 08:55:18;;;;;;;3.35;2.55;;;;;;;9.04;65.89;98943.55;3017176;78;21017;-84
2022/04/09 08:59:19;;;;;;;9.30;2.98;;;;;;;8.76;62.16;98938.27;3009483;77;21059;-85
2022/04/09 09:03:20;;;;;;;7.42;3.15;;;;;;;9.09;66.94;98945.75;3008485;78;21545;-84
2022/04/09 09:07:24;;;;;;;6.42;3.30;;;;;;;8.91;65.01;98949.20;3026790;77;21529;-85
2022/04/09 09:11:27;;;;;;;4.80;3.30;;;;;;;8.73;63.72;98965.55;2995612;77;21058;-82
2022/04/09 09:15:28;;;;;;;13.80;9.33;;;;;;;8.52;64.44;98970.59;3004567;77;21041;-89
2022/04/09 09:19:48;;;;;;;8.25;3.95;;;;;;;8.60;64.45;98981.28;2998270;77;21021;-82
2022/04/09 09:23:52;;;;;;;5.92;2.42;;;;;;;8.74;64.83;98971.20;2983848;78;21591;-82
2022/04/09 09:27:57;;;;;;;15.83;8.13;;;;;;;8.76;64.95;98967.91;2990843;78;21065;-84
2022/04/09 09:32:04;;;;;;;4.37;1.80;;;;;;;8.80;61.85;98968.80;2998964;77;21828;-92
2022/04/09 09:36:05;;;;;;;15.08;3.35;;;;;;;9.12;65.40;98980.76;2955993;78;21021;-82
2022/04/09 09:40:08;;;;;;;2.00;1.07;;;;;;;9.32;63.91;98985.13;3016570;78;21017;-82
2022/04/09 09:44:09;;;;;;;7.15;2.40;;;;;;;9.53;61.93;98979.52;3016417;78;20986;-81
2022/04/09 09:48:35;;;;;;;6.28;2.45;;;;;;;9.44;64.43;98978.63;3018605;78;21025;-81
2022/04/09 09:52:34;;;;;;;1.25;1.10;;;;;;;9.53;63.01;98992.79;3005146;78;21017;-81
2022/04/09 09:56:42;;;;;;;2.42;1.85;;;;;;;9.68;61.05;99002.41;3016521;78;21612;-86
2022/04/09 10:00:44;;;;;;;3.42;1.25;;;;;;;9.73;61.78;99024.02;3017195;78;21013;-85
2022/04/09 10:04:46;;;;;;;8.50;2.55;;;;;;;9.52;59.71;99024.30;3017425;78;20985;-80
2022/04/09 10:08:48;;;;;;;4.00;2.70;;;;;;;9.43;61.58;99036.66;3002189;78;21513;-80
2022/04/09 10:12:49;;;;;;;8.23;1.55;;;;;;;9.14;59.88;99049.13;3002920;78;21821;-80
2022/04/09 10:16:52;;;;;;;5.40;1.67;;;;;;;9.17;60.08;99057.27;3017439;78;21064;-80
2022/04/09 10:20:59;;;;;;;5.30;1.65;;;;;;;9.43;61.86;99048.59;3018876;78;21699;-81
2022/04/09 10:25:03;;;;;;;3.30;1.20;;;;;;;9.36;58.81;99069.61;3018211;78;20982;-80
2022/04/09 10:29:08;;;;;;;1.82;1.70;;;;;;;9.56;59.80;99067.66;3018846;78;20986;-81
2022/04/09 10:33:27;;;;;;;2.85;1.32;;;;;;;10.00;62.22;99059.45;2984199;77;21051;-81
2022/04/09 10:37:28;;;;;;;5.08;1.20;;;;;;;10.03;58.66;99060.50;2960853;79;21011;-81
2022/04/09 10:41:30;;;;;;;4.15;1.98;;;;;;;10.22;59.22;99065.28;2965442;78;21062;-79
2022/04/09 10:45:34;;;;;;;2.12;1.92;;;;;;;10.56;60.30;99068.09;2948346;79;21072;-81
2022/04/09 10:49:36;;;;;;;3.12;1.62;;;;;;;10.74;59.11;99068.53;2958606;79;20991;-81
2022/04/09 10:53:42;;;;;;;5.47;1.15;;;;;;;10.81;57.63;99074.06;2877568;80;21017;-80
2022/04/09 10:57:46;;;;;;;3.02;1.67;;;;;;;10.25;58.08;99082.28;2931895;79;21032;-81
2022/04/09 11:01:51;;;;;;;5.95;1.60;;;;;;;10.19;60.16;99089.52;2892638;80;21031;-81
2022/04/09 11:06:32;;;;;;;2.98;1.12;;;;;;;10.60;59.19;99077.89;2953616;79;21057;-81
2022/04/09 11:10:33;;;;;;;4.12;1.92;;;;;;;10.98;59.46;99080.30;2884577;80;21021;-80
2022/04/09 11:14:56;;;;;;;6.15;2.42;;;;;;;11.08;56.19;99066.88;2974906;79;21078;-81
2022/04/09 11:19:00;;;;;;;2.22;1.35;;;;;;;11.03;55.17;99087.82;2878208;80;21049;-81
2022/04/09 11:23:19;;;;;;;4.10;2.20;;;;;;;11.03;57.16;99085.16;2972510;78;21007;-81
2022/04/09 11:27:20;;;;;;;7.22;2.40;;;;;;;11.20;55.44;99080.73;2888287;80;21065;-80
2022/04/09 11:31:22;;;;;;;4.08;1.77;;;;;;;11.17;55.66;99092.53;2980490;77;20974;-80
2022/04/09 11:35:24;;;;;;;4.37;2.30;;;;;;;10.28;59.44;99144.42;3002952;77;21018;-87
2022/04/09 11:39:25;;;;;;;4.33;1.62;;;;;;;8.27;70.42;99157.82;3017255;77;21028;-82
2022/04/09 11:43:27;;;;;;;3.92;1.02;;;;;;;7.53;76.04;99189.02;2981105;77;21028;-88
2022/04/09 11:47:29;;;;;;;3.50;1.32;;;;;;;6.76;78.40;99202.16;3027145;77;21036;-84
2022/04/09 11:51:30;;;;;;;2.62;1.65;;;;;;;6.89;86.10;99167.12;3026954;78;21030;-84
2022/04/09 11:55:31;;;;;;;4.03;1.82;;;;;;;7.32;84.43;99147.23;3027830;78;21017;-82
2022/04/09 11:59:32;;;;;;;3.30;1.70;;;;;;;7.73;82.78;99144.09;3024776;77;21028;-81
2022/04/09 12:03:34;;;;;;;2.33;1.77;;;;;;;8.28;82.46;99134.83;3025953;78;20946;-80
2022/04/09 12:07:44;;;;;;;3.35;1.35;;;;;;;8.70;78.18;99127.06;3027361;78;21064;-80
2022/04/09 12:11:52;;;;;;;3.92;2.02;;;;;;;9.05;74.11;99141.50;3027954;78;21001;-80
2022/04/09 12:15:57;;;;;;;2.50;1.20;;;;;;;9.41;73.98;99138.16;3027510;77;21455;-79
2022/04/09 12:19:58;;;;;;;2.87;1.50;;;;;;;9.67;72.17;99142.80;3020566;78;22219;-80
2022/04/09 12:24:06;;;;;;;2.80;2.15;;;;;;;9.78;65.18;99149.22;3022976;77;21493;-88
2022/04/09 12:28:22;;;;;;;3.90;2.55;;;;;;;9.82;67.52;99152.42;3002836;77;21064;-80
2022/04/09 12:32:24;;;;;;;3.60;1.00;;;;;;;9.67;67.67;99140.14;3005333;77;21478;-86
2022/04/09 12:36:25;;;;;;;1.95;1.42;;;;;;;9.41;61.42;99140.81;3005319;77;21036;-89
2022/04/09 12:40:29;;;;;;;8.43;5.05;;;;;;;9.58;60.16;99131.25;3020234;77;21001;-82
2022/04/09 12:44:33;;;;;;;2.10;1.45;;;;;;;9.82;62.13;99145.27;2937652;80;21010;-81
2022/04/09 12:48:51;;;;;;;3.55;1.85;;;;;;;10.07;60.47;99136.26;2974555;78;21005;-82
2022/04/09 12:52:54;;;;;;;7.97;4.10;;;;;;;10.24;59.05;99145.21;3005338;77;21675;-81
2022/04/09 12:56:58;;;;;;;1.85;1.70;;;;;;;10.35;58.61;99156.11;2984430;77;21675;-81
2022/04/09 13:01:00;;;;;;;4.55;2.05;;;;;;;10.66;61.08;99151.76;3009184;77;20947;-81
2022/04/09 13:05:01;;;;;;;4.65;1.37;;;;;;;10.91;61.70;99154.59;3014216;77;21021;-81
2022/04/09 13:09:02;;;;;;;1.75;1.25;;;;;;;10.87;56.93;99166.54;3006163;77;21064;-81
2022/04/09 13:13:05;;;;;;;6.87;1.80;;;;;;;10.26;61.70;99171.14;2988269;77;40086;-81
2022/04/09 13:17:06;;;;;;;2.00;0.23;;;;;;;9.63;62.51;99195.83;3005491;77;21307;-81
2022/04/09 13:21:07;;;;;;;0.70;0.47;;;;;;;8.26;66.94;99246.73;2999818;77;21060;-79
2022/04/09 13:25:09;;;;;;;1.65;0.47;;;;;;;7.64;70.60;99254.26;3017703;78;21052;-82
2022/04/09 13:29:11;;;;;;;0.90;0.40;;;;;;;7.46;73.72;99250.04;3017339;78;21056;-82
2022/04/09 13:33:12;;;;;;;2.45;1.80;;;;;;;7.41;76.40;99242.98;3017701;77;21445;-82
2022/04/09 13:37:14;;;;;;;2.22;2.05;;;;;;;7.55;78.39;99232.06;3004181;77;21499;-82
2022/04/09 13:41:18;;;;;;;7.83;3.42;;;;;;;8.02;79.01;99224.06;3010667;78;20994;-82
2022/04/09 13:45:18;;;;;;;4.55;3.08;;;;;;;8.55;80.50;99222.09;2986744;77;21002;-82
2022/04/09 13:49:19;;;;;;;5.70;4.00;;;;;;;9.10;79.59;99218.02;3001620;77;21014;-82
2022/04/09 13:53:20;;;;;;;3.30;2.20;;;;;;;9.64;78.77;99211.62;3001332;77;21009;-82
2022/04/09 13:57:22;;;;;;;2.83;2.58;;;;;;;10.07;76.27;99208.47;2992202;77;21561;-82
2022/04/09 14:01:24;;;;;;;10.40;3.08;;;;;;;10.43;71.00;99212.06;2993507;77;21058;-82
2022/04/09 14:05:25;;;;;;;3.37;2.98;;;;;;;10.75;70.23;99201.02;3007302;77;21576;-82
2022/04/09 14:09:27;;;;;;;3.65;3.22;;;;;;;11.02;69.56;99204.56;3007796;77;20989;-82
2022/04/09 14:13:28;;;;;;;4.78;3.27;;;;;;;11.28;72.31;99201.41;2987158;77;21021;-82
2022/04/09 14:17:29;;;;;;;2.45;2.22;;;;;;;11.46;66.44;99200.51;2983151;77;20993;-83
2022/04/09 14:21:30;;;;;;;3.00;2.45;;;;;;;11.61;66.40;99203.41;3023276;77;21423;-82
2022/04/09 14:25:32;;;;;;;4.12;2.42;;;;;;;11.78;65.67;99190.16;3009168;77;21002;-81
2022/04/09 14:29:34;;;;;;;4.05;2.55;;;;;;;11.74;61.29;99191.48;3001170;77;21021;-82
2022/04/09 14:33:35;;;;;;;3.83;2.85;;;;;;;11.73;60.39;99187.97;2979032;78;21088;-82
2022/04/09 14:37:36;;;;;;;3.77;2.92;;;;;;;11.85;63.14;99188.51;2993041;77;20997;-81
2022/04/09 14:41:39;;;;;;;2.92;2.27;;;;;;;12.07;63.91;99191.13;3003072;77;21005;-83
2022/04/09 14:45:42;;;;;;;4.75;2.80;;;;;;;12.08;62.17;99199.45;3010827;77;21009;-82
2022/04/09 14:49:43;;;;;;;3.72;3.33;;;;;;;11.78;61.33;99205.63;3014524;77;21021;-82
2022/04/09 14:53:45;;;;;;;2.92;2.37;;;;;;;11.47;61.94;99208.83;3002707;77;21060;-82
2022/04/09 14:57:46;;;;;;;4.62;3.80;;;;;;;11.51;63.84;99212.03;2996946;77;21064;-82
2022/04/09 15:01:48;;;;;;;4.55;3.65;;;;;;;11.68;65.01;99199.61;2991386;77;21036;-82
2022/04/09 15:05:49;;;;;;;5.00;2.58;;;;;;;11.77;62.20;99196.48;3019536;78;21032;-82
2022/04/09 15:09:52;;;;;;;5.85;2.98;;;;;;;11.89;60.18;99183.70;3010228;77;21060;-82
2022/04/09 15:13:53;;;;;;;2.10;1.90;;;;;;;12.02;59.42;99192.59;3010522;77;21005;-82
2022/04/09 15:17:54;;;;;;;3.20;2.50;;;;;;;12.09;58.40;99197.12;2995333;77;20970;-82
2022/04/09 15:21:58;;;;;;;3.10;2.10;;;;;;;12.10;57.64;99197.45;3006403;77;21006;-82
2022/04/09 15:25:59;;;;;;;2.67;1.87;;;;;;;12.04;58.60;99198.11;2992259;77;21053;-82
2022/04/09 15:30:01;;;;;;;6.67;3.00;;;;;;;12.15;57.22;99204.97;3007489;77;21029;-82
2022/04/09 15:34:03;;;;;;;4.22;2.12;;;;;;;12.29;58.18;99210.16;2997469;77;20969;-83
2022/04/09 15:38:05;;;;;;;2.37;2.17;;;;;;;12.35;56.50;99203.35;3016482;77;21028;-83
2022/04/09 15:42:10;;;;;;;4.53;3.00;;;;;;;12.38;56.66;99207.86;3001928;77;21025;-82
2022/04/09 15:46:11;;;;;;;7.53;3.03;;;;;;;12.27;57.06;99212.16;2985916;77;21029;-82
2022/04/09 15:50:13;;;;;;;4.05;3.02;;;;;;;12.28;56.52;99213.34;3031725;77;21025;-83
2022/04/09 15:54:14;;;;;;;4.83;3.25;;;;;;;12.45;56.99;99216.53;2981205;77;21323;-83
2022/04/09 15:58:15;;;;;;;5.40;1.62;;;;;;;12.42;52.79;99219.02;3017961;77;21572;-82
2022/04/09 16:02:18;;;;;;;5.30;1.80;;;;;;;12.08;47.67;99202.60;3033980;76;21005;-83
2022/04/09 16:06:19;;;;;;;2.98;1.87;;;;;;;12.00;49.39;99212.73;3011692;77;21521;-83
2022/04/09 16:10:20;;;;;;;2.37;1.98;;;;;;;11.73;51.25;99214.61;2983882;77;21018;-82
2022/04/09 16:14:21;;;;;;;2.12;1.87;;;;;;;11.55;50.87;99235.50;3003830;76;21011;-82
2022/04/09 16:18:22;;;;;;;11.43;2.98;;;;;;;11.29;54.28;99241.67;2992274;77;21017;-82
2022/04/09 16:22:24;;;;;;;8.00;2.42;;;;;;;11.04;53.16;99244.64;3006593;77;20969;-83
2022/04/09 16:26:25;;;;;;;3.52;2.72;;;;;;;10.84;54.91;99242.67;3028962;77;21040;-83
2022/04/09 16:30:27;;;;;;;4.33;1.90;;;;;;;10.76;57.71;99249.23;2994199;77;21645;-83
2022/04/09 16:34:28;;;;;;;3.12;2.00;;;;;;;10.56;59.61;99238.75;2995895;77;21072;-83
2022/04/09 16:38:30;;;;;;;2.77;2.25;;;;;;;10.34;60.10;99255.95;3005810;77;20993;-82
2022/04/09 16:42:31;;;;;;;3.37;1.87;;;;;;;10.11;61.05;99259.85;2986636;77;21010;-82
2022/04/09 16:46:32;;;;;;;3.50;2.42;;;;;;;9.88;62.33;99274.52;3003207;77;21529;-83
2022/04/09 16:50:33;;;;;;;3.25;2.20;;;;;;;9.66;62.33;99275.22;3006019;77;21068;-83
2022/04/09 16:54:34;;;;;;;3.83;2.60;;;;;;;9.52;62.29;99283.98;2999514;77;21104;-83
2022/04/09 16:58:35;;;;;;;3.67;2.35;;;;;;;9.46;62.81;99287.22;2993024;77;21139;-82
2022/04/09 17:02:36;;;;;;;4.37;2.30;;;;;;;9.35;62.90;99295.34;2985658;77;21454;-82
2022/04/09 17:06:37;;;;;;;7.37;2.60;;;;;;;9.25;63.99;99300.66;2992908;77;21422;-82
2022/04/09 17:10:39;;;;;;;3.20;2.30;;;;;;;9.12;63.76;99308.91;2987204;77;21567;-82
2022/04/09 17:14:40;;;;;;;2.47;2.02;;;;;;;8.96;64.14;99316.94;2995971;77;20954;-82
2022/04/09 17:18:43;;;;;;;4.50;2.72;;;;;;;8.71;65.10;99323.13;2994287;77;21077;-81
2022/04/09 17:22:45;;;;;;;2.92;2.45;;;;;;;8.49;65.73;99323.34;2993712;77;21317;-81
2022/04/09 17:26:47;;;;;;;6.67;3.22;;;;;;;8.32;66.36;99334.09;2999038;77;21021;-81
2022/04/09 17:30:48;;;;;;;3.62;3.17;;;;;;;8.20;67.57;99346.60;2974918;77;21104;-81
2022/04/09 17:34:49;;;;;;;3.60;2.37;;;;;;;8.11;68.09;99349.56;2962383;77;21035;-82
2022/04/09 17:38:50;;;;;;;4.90;3.40;;;;;;;8.10;68.70;99358.01;2968609;78;21030;-81
2022/04/09 17:42:53;;;;;;;6.60;4.47;;;;;;;8.13;69.51;99367.02;2942860;79;21543;-81
2022/04/09 17:46:54;;;;;;;6.53;3.10;;;;;;;8.16;70.64;99369.89;2964768;79;21019;-84
2022/04/09 17:50:56;;;;;;;3.80;2.62;;;;;;;8.13;71.01;99377.61;2958174;78;21010;-84
2022/04/09 17:54:57;;;;;;;7.50;3.85;;;;;;;8.09;70.97;99376.20;2874180;81;21531;-85
2022/04/09 17:58:58;;;;;;;5.95;3.42;;;;;;;8.04;70.86;99388.98;2946504;79;21528;-86
2022/04/09 18:02:59;;;;;;;5.40;2.72;;;;;;;8.04;70.53;99388.98;2875039;80;20974;-86
2022/04/09 18:07:00;;;;;;;3.00;2.25;;;;;;;8.00;70.75;99402.13;2964850;79;21078;-86
2022/04/09 18:11:06;;;;;;;4.62;2.00;;;;;;;8.00;70.22;99397.69;2862091;80;21526;-85
2022/04/09 18:15:06;;;;;;;3.72;2.25;;;;;;;8.03;68.54;99405.84;2966352;79;21043;-83
2022/04/09 18:19:07;;;;;;;4.22;3.62;;;;;;;8.08;67.58;99426.64;2883481;80;21045;-82
2022/04/09 18:23:08;;;;;;;3.87;3.17;;;;;;;8.10;67.35;99430.86;2959448;78;21035;-83
2022/04/09 18:27:10;;;;;;;4.53;2.25;;;;;;;8.14;67.71;99445.98;2885120;82;20994;-83
2022/04/09 18:31:11;;;;;;;3.90;2.33;;;;;;;8.11;68.13;99456.38;2946354;79;21034;-84
2022/04/09 18:35:13;;;;;;;4.65;2.45;;;;;;;8.05;68.85;99462.67;2995160;79;21514;-83
2022/04/09 18:39:14;;;;;;;3.52;2.87;;;;;;;7.99;69.41;99471.97;3000668;78;21018;-83
2022/04/09 18:43:15;;;;;;;6.95;2.67;;;;;;;7.83;69.83;99474.57;2977208;77;21006;-82
2022/04/09 18:47:17;;;;;;;2.02;1.80;;;;;;;7.69;70.43;99482.34;2991664;79;20974;-86
2022/04/09 18:51:20;;;;;;;3.27;2.77;;;;;;;7.56;71.43;99488.28;3007563;77;21042;-85
2022/04/09 18:55:21;;;;;;;6.37;2.52;;;;;;;7.46;71.72;99501.42;3002986;78;21004;-87
2022/04/09 18:59:27;;;;;;;3.47;2.05;;;;;;;7.33;72.29;99511.34;3002323;77;21652;-86
2022/04/09 19:03:28;;;;;;;2.92;2.10;;;;;;;7.18;72.94;99526.66;2993734;78;21065;-84
2022/04/09 19:07:28;;;;;;;5.25;3.27;;;;;;;7.06;73.50;99534.59;3005523;77;21026;-84
2022/04/09 19:11:29;;;;;;;9.88;4.40;;;;;;;7.00;73.95;99548.30;3005473;77;21077;-82
2022/04/09 19:15:31;;;;;;;6.55;4.83;;;;;;;6.87;74.90;99548.40;3004043;79;20963;-81